KCLT

Charlotte / Douglas International Airport

Charlotte, North Carolina, USA
METAR KCLT 221452Z 15007KT 10SM FEW250 12/02 A3037 RMK AO2 SLP286 T01220017 51011
Observed Flight Rules
Oct-22 @ 14:52 UTC (14 minutes ago) Visual Flight Rules
Wind Visibility Clouds
150° at 7 knots 10 miles
  • Few at 25,000' AGL
Temperatures Readings
Current 12°C / 54°F
Dewpoint 2°C / 36°F
Humidity 51%
Altimeter 30.37" Hg
Pressure 1028.6 hPa
Elevation 220
METAR KCLT 221452Z 15007KT 10SM FEW250 12/02 A3037 RMK AO2 SLP286 T01220017 51011
Observed Flight Rules
Oct-22 @ 14:52 UTC
(14 minutes ago)
VFR
Wind Visibility
150° at 7 knots 10 miles
Clouds
  • Few at 25,000' AGL
Temperature Dewpoint
12°C / 54°F 2°C / 36°F
Humidity Altimeter Pressure
51% 30.37" Hg 1028.6 hPa